sensor_id;sensor_type;location;lat;lon;timestamp;temperature;humidity
5711;DHT22;61291;52.524;13.422;2023-03-19T00:02:07;9.50;99.90
5711;DHT22;61291;52.524;13.422;2023-03-19T00:04:33;9.40;99.90
5711;DHT22;61291;52.524;13.422;2023-03-19T00:06:58;9.40;99.90
5711;DHT22;61291;52.524;13.422;2023-03-19T00:09:24;9.40;99.90
5711;DHT22;61291;52.524;13.422;2023-03-19T00:11:50;9.50;99.90
5711;DHT22;61291;52.524;13.422;2023-03-19T00:14:16;9.50;99.90
5711;DHT22;61291;52.524;13.422;2023-03-19T00:16:41;9.50;99.90
5711;DHT22;61291;52.524;13.422;2023-03-19T00:19:07;9.50;99.90
5711;DHT22;61291;52.524;13.422;2023-03-19T00:21:33;9.50;99.90
5711;DHT22;61291;52.524;13.422;2023-03-19T00:23:58;9.40;99.90
5711;DHT22;61291;52.524;13.422;2023-03-19T00:26:33;9.40;99.90
5711;DHT22;61291;52.524;13.422;2023-03-19T00:28:59;9.40;99.90
5711;DHT22;61291;52.524;13.422;2023-03-19T00:31:26;9.40;99.90
5711;DHT22;61291;52.524;13.422;2023-03-19T00:33:53;9.40;99.90
5711;DHT22;61291;52.524;13.422;2023-03-19T00:36:19;9.30;99.90
5711;DHT22;61291;52.524;13.422;2023-03-19T00:38:46;9.30;99.90
5711;DHT22;61291;52.524;13.422;2023-03-19T00:41:12;9.30;99.90
5711;DHT22;61291;52.524;13.422;2023-03-19T00:43:38;9.20;99.90
5711;DHT22;61291;52.524;13.422;2023-03-19T00:46:04;9.10;99.90
5711;DHT22;61291;52.524;13.422;2023-03-19T00:48:30;9.10;99.90
5711;DHT22;61291;52.524;13.422;2023-03-19T00:51:07;9.00;99.90
5711;DHT22;61291;52.524;13.422;2023-03-19T00:53:38;9.00;99.90
5711;DHT22;61291;52.524;13.422;2023-03-19T00:56:04;8.90;99.90
5711;DHT22;61291;52.524;13.422;2023-03-19T00:58:30;8.80;99.90
5711;DHT22;61291;52.524;13.422;2023-03-19T01:00:55;8.70;99.90
5711;DHT22;61291;52.524;13.422;2023-03-19T01:03:21;8.70;99.90
5711;DHT22;61291;52.524;13.422;2023-03-19T01:05:49;8.70;99.90
5711;DHT22;61291;52.524;13.422;2023-03-19T01:08:16;8.70;99.90
5711;DHT22;61291;52.524;13.422;2023-03-19T01:10:42;8.70;99.90
5711;DHT22;61291;52.524;13.422;2023-03-19T01:13:08;8.70;99.90
5711;DHT22;61291;52.524;13.422;2023-03-19T01:15:38;8.70;99.90
5711;DHT22;61291;52.524;13.422;2023-03-19T01:18:04;8.60;99.90
5711;DHT22;61291;52.524;13.422;2023-03-19T01:20:30;8.60;99.90
5711;DHT22;61291;52.524;13.422;2023-03-19T01:22:56;8.60;99.90
5711;DHT22;61291;52.524;13.422;2023-03-19T01:25:21;8.70;99.90
5711;DHT22;61291;52.524;13.422;2023-03-19T01:27:47;8.60;99.90
5711;DHT22;61291;52.524;13.422;2023-03-19T01:30:12;8.60;99.90
5711;DHT22;61291;52.524;13.422;2023-03-19T01:32:38;8.60;99.90
5711;DHT22;61291;52.524;13.422;2023-03-19T01:35:04;8.60;99.90
5711;DHT22;61291;52.524;13.422;2023-03-19T01:37:30;8.60;99.90
5711;DHT22;61291;52.524;13.422;2023-03-19T01:39:56;8.60;99.90
5711;DHT22;61291;52.524;13.422;2023-03-19T01:42:21;8.60;99.90
5711;DHT22;61291;52.524;13.422;2023-03-19T01:44:47;8.60;99.90
5711;DHT22;61291;52.524;13.422;2023-03-19T01:47:18;8.60;99.90
5711;DHT22;61291;52.524;13.422;2023-03-19T01:49:51;8.60;99.90
5711;DHT22;61291;52.524;13.422;2023-03-19T01:52:18;8.60;99.90
5711;DHT22;61291;52.524;13.422;2023-03-19T01:54:45;8.60;99.90
5711;DHT22;61291;52.524;13.422;2023-03-19T01:57:12;8.60;99.90
5711;DHT22;61291;52.524;13.422;2023-03-19T01:59:44;8.50;99.90
5711;DHT22;61291;52.524;13.422;2023-03-19T02:02:14;8.50;99.90
5711;DHT22;61291;52.524;13.422;2023-03-19T02:04:42;8.50;99.90
5711;DHT22;61291;52.524;13.422;2023-03-19T02:07:09;8.60;99.90
5711;DHT22;61291;52.524;13.422;2023-03-19T02:09:36;8.60;99.90
5711;DHT22;61291;52.524;13.422;2023-03-19T02:12:02;8.60;99.90
5711;DHT22;61291;52.524;13.422;2023-03-19T02:14:28;8.70;99.90
5711;DHT22;61291;52.524;13.422;2023-03-19T02:16:54;8.70;99.90
5711;DHT22;61291;52.524;13.422;2023-03-19T02:22:17;8.60;99.90
5711;DHT22;61291;52.524;13.422;2023-03-19T02:24:54;8.50;99.90
5711;DHT22;61291;52.524;13.422;2023-03-19T02:27:21;8.40;99.90
5711;DHT22;61291;52.524;13.422;2023-03-19T02:29:47;8.40;99.90
5711;DHT22;61291;52.524;13.422;2023-03-19T02:32:13;8.40;99.90
5711;DHT22;61291;52.524;13.422;2023-03-19T02:34:40;8.30;99.90
5711;DHT22;61291;52.524;13.422;2023-03-19T02:37:25;8.30;99.90
5711;DHT22;61291;52.524;13.422;2023-03-19T02:40:04;8.30;99.90
5711;DHT22;61291;52.524;13.422;2023-03-19T02:42:32;8.40;99.90
5711;DHT22;61291;52.524;13.422;2023-03-19T02:44:57;8.50;99.90
5711;DHT22;61291;52.524;13.422;2023-03-19T02:47:24;8.60;99.90
5711;DHT22;61291;52.524;13.422;2023-03-19T02:49:50;8.70;99.90
5711;DHT22;61291;52.524;13.422;2023-03-19T02:52:16;8.70;99.90
5711;DHT22;61291;52.524;13.422;2023-03-19T02:54:42;8.70;99.90
5711;DHT22;61291;52.524;13.422;2023-03-19T02:57:07;8.70;99.90
5711;DHT22;61291;52.524;13.422;2023-03-19T02:59:33;8.80;99.90
5711;DHT22;61291;52.524;13.422;2023-03-19T03:01:59;8.80;99.90
5711;DHT22;61291;52.524;13.422;2023-03-19T03:04:24;8.90;99.90
5711;DHT22;61291;52.524;13.422;2023-03-19T03:06:51;8.90;99.90
5711;DHT22;61291;52.524;13.422;2023-03-19T03:09:17;9.00;99.90
5711;DHT22;61291;52.524;13.422;2023-03-19T03:11:43;9.00;99.90
5711;DHT22;61291;52.524;13.422;2023-03-19T03:14:09;9.00;99.90
5711;DHT22;61291;52.524;13.422;2023-03-19T03:16:35;9.00;99.90
5711;DHT22;61291;52.524;13.422;2023-03-19T03:19:02;9.10;99.90
5711;DHT22;61291;52.524;13.422;2023-03-19T03:21:28;9.10;99.90
5711;DHT22;61291;52.524;13.422;2023-03-19T03:23:53;9.10;99.90
5711;DHT22;61291;52.524;13.422;2023-03-19T03:26:19;9.10;99.90
5711;DHT22;61291;52.524;13.422;2023-03-19T03:28:45;9.20;99.90
5711;DHT22;61291;52.524;13.422;2023-03-19T03:31:11;9.20;99.90
5711;DHT22;61291;52.524;13.422;2023-03-19T03:33:37;9.30;99.90
5711;DHT22;61291;52.524;13.422;2023-03-19T03:36:03;9.30;99.90
5711;DHT22;61291;52.524;13.422;2023-03-19T03:38:29;9.30;99.90
5711;DHT22;61291;52.524;13.422;2023-03-19T03:40:56;9.40;99.90
5711;DHT22;61291;52.524;13.422;2023-03-19T03:43:22;9.40;99.90
5711;DHT22;61291;52.524;13.422;2023-03-19T03:45:48;9.50;99.90
5711;DHT22;61291;52.524;13.422;2023-03-19T03:48:14;9.50;99.90
5711;DHT22;61291;52.524;13.422;2023-03-19T03:50:39;9.50;99.90
5711;DHT22;61291;52.524;13.422;2023-03-19T03:53:05;9.50;99.90
5711;DHT22;61291;52.524;13.422;2023-03-19T03:55:31;9.40;99.90
5711;DHT22;61291;52.524;13.422;2023-03-19T03:57:57;9.40;99.90
5711;DHT22;61291;52.524;13.422;2023-03-19T04:00:23;9.30;99.90
5711;DHT22;61291;52.524;13.422;2023-03-19T04:02:49;9.30;99.90
5711;DHT22;61291;52.524;13.422;2023-03-19T04:05:15;9.20;99.90
5711;DHT22;61291;52.524;13.422;2023-03-19T04:07:42;9.30;99.90
5711;DHT22;61291;52.524;13.422;2023-03-19T04:10:09;9.20;99.90
5711;DHT22;61291;52.524;13.422;2023-03-19T04:12:38;9.20;99.90
5711;DHT22;61291;52.524;13.422;2023-03-19T04:15:06;9.30;99.90
5711;DHT22;61291;52.524;13.422;2023-03-19T04:17:32;9.30;99.90
5711;DHT22;61291;52.524;13.422;2023-03-19T04:19:58;9.40;99.90
5711;DHT22;61291;52.524;13.422;2023-03-19T04:22:23;9.30;99.90
5711;DHT22;61291;52.524;13.422;2023-03-19T04:24:49;9.30;99.90
5711;DHT22;61291;52.524;13.422;2023-03-19T04:27:14;9.30;99.90
5711;DHT22;61291;52.524;13.422;2023-03-19T04:29:40;9.40;99.90
5711;DHT22;61291;52.524;13.422;2023-03-19T04:32:06;9.40;99.90
5711;DHT22;61291;52.524;13.422;2023-03-19T04:34:32;9.40;99.90
5711;DHT22;61291;52.524;13.422;2023-03-19T04:36:57;9.40;99.90
5711;DHT22;61291;52.524;13.422;2023-03-19T04:39:23;9.40;99.90
5711;DHT22;61291;52.524;13.422;2023-03-19T04:41:49;9.40;99.90
5711;DHT22;61291;52.524;13.422;2023-03-19T04:44:14;9.40;99.90
5711;DHT22;61291;52.524;13.422;2023-03-19T04:46:40;9.40;99.90
5711;DHT22;61291;52.524;13.422;2023-03-19T04:49:06;9.40;99.90
5711;DHT22;61291;52.524;13.422;2023-03-19T04:51:32;9.40;99.90
5711;DHT22;61291;52.524;13.422;2023-03-19T04:53:59;9.40;99.90
5711;DHT22;61291;52.524;13.422;2023-03-19T04:56:24;9.50;99.90
5711;DHT22;61291;52.524;13.422;2023-03-19T04:58:50;9.50;99.90
5711;DHT22;61291;52.524;13.422;2023-03-19T05:01:16;9.60;99.90
5711;DHT22;61291;52.524;13.422;2023-03-19T05:03:41;9.60;99.90
5711;DHT22;61291;52.524;13.422;2023-03-19T05:06:07;9.50;99.90
5711;DHT22;61291;52.524;13.422;2023-03-19T05:08:33;9.50;99.90
5711;DHT22;61291;52.524;13.422;2023-03-19T05:10:58;9.50;99.90
5711;DHT22;61291;52.524;13.422;2023-03-19T05:13:25;9.50;99.90
5711;DHT22;61291;52.524;13.422;2023-03-19T05:15:53;9.60;99.90
5711;DHT22;61291;52.524;13.422;2023-03-19T05:18:19;9.50;99.90
5711;DHT22;61291;52.524;13.422;2023-03-19T05:20:45;9.40;99.90
5711;DHT22;61291;52.524;13.422;2023-03-19T05:23:11;9.30;99.90
5711;DHT22;61291;52.524;13.422;2023-03-19T05:25:37;9.20;99.90
5711;DHT22;61291;52.524;13.422;2023-03-19T05:28:04;9.20;99.90
5711;DHT22;61291;52.524;13.422;2023-03-19T05:30:30;9.20;99.90
5711;DHT22;61291;52.524;13.422;2023-03-19T05:32:57;8.80;99.90
5711;DHT22;61291;52.524;13.422;2023-03-19T05:35:22;8.50;99.90
5711;DHT22;61291;52.524;13.422;2023-03-19T05:37:48;8.40;99.90
5711;DHT22;61291;52.524;13.422;2023-03-19T05:40:14;8.50;99.90
5711;DHT22;61291;52.524;13.422;2023-03-19T05:42:41;8.50;99.90
5711;DHT22;61291;52.524;13.422;2023-03-19T05:45:06;8.60;99.90
5711;DHT22;61291;52.524;13.422;2023-03-19T05:47:32;8.70;99.90
5711;DHT22;61291;52.524;13.422;2023-03-19T05:49:59;8.90;99.90
5711;DHT22;61291;52.524;13.422;2023-03-19T05:52:24;9.00;99.90
5711;DHT22;61291;52.524;13.422;2023-03-19T05:54:50;9.10;99.90
5711;DHT22;61291;52.524;13.422;2023-03-19T05:57:15;9.00;99.90
5711;DHT22;61291;52.524;13.422;2023-03-19T05:59:41;9.10;99.90
5711;DHT22;61291;52.524;13.422;2023-03-19T06:02:07;9.20;99.90
5711;DHT22;61291;52.524;13.422;2023-03-19T06:04:33;9.20;99.90
5711;DHT22;61291;52.524;13.422;2023-03-19T06:06:59;9.20;99.90
5711;DHT22;61291;52.524;13.422;2023-03-19T06:09:25;9.30;99.90
5711;DHT22;61291;52.524;13.422;2023-03-19T06:11:50;9.50;99.90
5711;DHT22;61291;52.524;13.422;2023-03-19T06:14:15;9.80;99.90
5711;DHT22;61291;52.524;13.422;2023-03-19T06:16:41;10.30;99.90
5711;DHT22;61291;52.524;13.422;2023-03-19T06:19:06;10.50;99.90
5711;DHT22;61291;52.524;13.422;2023-03-19T06:21:32;10.80;99.90
5711;DHT22;61291;52.524;13.422;2023-03-19T06:23:58;11.20;99.90
5711;DHT22;61291;52.524;13.422;2023-03-19T06:26:24;11.90;99.90
5711;DHT22;61291;52.524;13.422;2023-03-19T06:28:50;12.20;99.90
5711;DHT22;61291;52.524;13.422;2023-03-19T06:31:15;12.70;99.90
5711;DHT22;61291;52.524;13.422;2023-03-19T06:33:41;13.00;99.90
5711;DHT22;61291;52.524;13.422;2023-03-19T06:36:07;12.60;99.90
5711;DHT22;61291;52.524;13.422;2023-03-19T06:38:33;12.50;99.90
5711;DHT22;61291;52.524;13.422;2023-03-19T06:40:59;12.30;99.90
5711;DHT22;61291;52.524;13.422;2023-03-19T06:43:25;12.30;99.90
5711;DHT22;61291;52.524;13.422;2023-03-19T06:45:50;12.30;99.90
5711;DHT22;61291;52.524;13.422;2023-03-19T06:48:16;12.40;99.90
5711;DHT22;61291;52.524;13.422;2023-03-19T06:50:44;12.50;99.90
5711;DHT22;61291;52.524;13.422;2023-03-19T06:53:11;12.50;99.90
5711;DHT22;61291;52.524;13.422;2023-03-19T06:55:37;12.50;99.90
5711;DHT22;61291;52.524;13.422;2023-03-19T06:58:02;12.40;99.90
5711;DHT22;61291;52.524;13.422;2023-03-19T07:00:28;12.20;99.90
5711;DHT22;61291;52.524;13.422;2023-03-19T07:02:53;12.00;99.90
5711;DHT22;61291;52.524;13.422;2023-03-19T07:05:19;11.80;99.90
5711;DHT22;61291;52.524;13.422;2023-03-19T07:07:44;11.70;99.90
5711;DHT22;61291;52.524;13.422;2023-03-19T07:10:10;11.50;99.90
5711;DHT22;61291;52.524;13.422;2023-03-19T07:12:35;11.30;99.90
5711;DHT22;61291;52.524;13.422;2023-03-19T07:15:01;11.10;99.90
5711;DHT22;61291;52.524;13.422;2023-03-19T07:17:26;11.10;99.90
5711;DHT22;61291;52.524;13.422;2023-03-19T07:19:52;11.00;99.90
5711;DHT22;61291;52.524;13.422;2023-03-19T07:22:17;11.10;99.90
5711;DHT22;61291;52.524;13.422;2023-03-19T07:24:43;11.00;99.90
5711;DHT22;61291;52.524;13.422;2023-03-19T07:27:09;11.10;99.90
5711;DHT22;61291;52.524;13.422;2023-03-19T07:29:34;11.10;99.90
5711;DHT22;61291;52.524;13.422;2023-03-19T07:32:00;11.20;99.90
5711;DHT22;61291;52.524;13.422;2023-03-19T07:34:26;11.20;99.90
5711;DHT22;61291;52.524;13.422;2023-03-19T07:36:51;11.20;99.90
5711;DHT22;61291;52.524;13.422;2023-03-19T07:39:17;11.10;99.90
5711;DHT22;61291;52.524;13.422;2023-03-19T07:41:43;10.80;99.90
5711;DHT22;61291;52.524;13.422;2023-03-19T07:44:12;10.30;99.90
5711;DHT22;61291;52.524;13.422;2023-03-19T07:46:37;10.40;99.90
5711;DHT22;61291;52.524;13.422;2023-03-19T07:49:03;10.50;99.90
5711;DHT22;61291;52.524;13.422;2023-03-19T07:51:28;10.70;99.90
5711;DHT22;61291;52.524;13.422;2023-03-19T07:53:54;10.80;99.90
5711;DHT22;61291;52.524;13.422;2023-03-19T07:56:19;10.90;99.90
5711;DHT22;61291;52.524;13.422;2023-03-19T07:58:45;11.10;99.90
5711;DHT22;61291;52.524;13.422;2023-03-19T08:01:10;11.30;99.90
5711;DHT22;61291;52.524;13.422;2023-03-19T08:03:36;11.60;99.90
5711;DHT22;61291;52.524;13.422;2023-03-19T08:06:03;11.70;99.90
5711;DHT22;61291;52.524;13.422;2023-03-19T08:08:28;11.70;99.90
5711;DHT22;61291;52.524;13.422;2023-03-19T08:10:54;11.70;99.90
5711;DHT22;61291;52.524;13.422;2023-03-19T08:13:19;11.70;99.90
5711;DHT22;61291;52.524;13.422;2023-03-19T08:15:45;11.60;99.90
5711;DHT22;61291;52.524;13.422;2023-03-19T08:18:10;11.60;99.90
5711;DHT22;61291;52.524;13.422;2023-03-19T08:20:36;11.60;99.90
5711;DHT22;61291;52.524;13.422;2023-03-19T08:23:02;11.80;99.90
5711;DHT22;61291;52.524;13.422;2023-03-19T08:25:27;11.90;99.90
5711;DHT22;61291;52.524;13.422;2023-03-19T08:27:57;12.00;99.90
5711;DHT22;61291;52.524;13.422;2023-03-19T08:30:22;12.00;99.90
5711;DHT22;61291;52.524;13.422;2023-03-19T08:32:48;11.90;99.90
5711;DHT22;61291;52.524;13.422;2023-03-19T08:35:14;11.90;99.90
5711;DHT22;61291;52.524;13.422;2023-03-19T08:37:40;11.90;99.90
5711;DHT22;61291;52.524;13.422;2023-03-19T08:40:06;12.00;99.90
5711;DHT22;61291;52.524;13.422;2023-03-19T08:42:32;11.80;99.90
5711;DHT22;61291;52.524;13.422;2023-03-19T08:44:58;11.50;99.90
5711;DHT22;61291;52.524;13.422;2023-03-19T08:47:24;11.30;99.90
5711;DHT22;61291;52.524;13.422;2023-03-19T08:49:50;11.20;99.90
5711;DHT22;61291;52.524;13.422;2023-03-19T08:52:17;11.20;99.90
5711;DHT22;61291;52.524;13.422;2023-03-19T08:54:42;11.10;99.90
5711;DHT22;61291;52.524;13.422;2023-03-19T08:57:08;11.00;99.90
5711;DHT22;61291;52.524;13.422;2023-03-19T08:59:33;11.00;99.90
5711;DHT22;61291;52.524;13.422;2023-03-19T09:01:59;11.00;99.90
5711;DHT22;61291;52.524;13.422;2023-03-19T09:04:24;11.00;99.90
5711;DHT22;61291;52.524;13.422;2023-03-19T09:06:50;10.90;99.90
5711;DHT22;61291;52.524;13.422;2023-03-19T09:09:17;10.80;99.90
5711;DHT22;61291;52.524;13.422;2023-03-19T09:11:43;10.80;99.90
5711;DHT22;61291;52.524;13.422;2023-03-19T09:14:08;10.60;99.90
5711;DHT22;61291;52.524;13.422;2023-03-19T09:16:36;10.50;99.90
5711;DHT22;61291;52.524;13.422;2023-03-19T09:19:01;10.50;99.90
5711;DHT22;61291;52.524;13.422;2023-03-19T09:21:27;10.60;99.90
5711;DHT22;61291;52.524;13.422;2023-03-19T09:23:53;10.70;99.90
5711;DHT22;61291;52.524;13.422;2023-03-19T09:26:18;10.80;99.90
5711;DHT22;61291;52.524;13.422;2023-03-19T09:28:44;11.00;99.90
5711;DHT22;61291;52.524;13.422;2023-03-19T09:31:10;11.40;99.90
5711;DHT22;61291;52.524;13.422;2023-03-19T09:33:35;11.30;99.90
5711;DHT22;61291;52.524;13.422;2023-03-19T09:36:01;11.30;99.90
5711;DHT22;61291;52.524;13.422;2023-03-19T09:38:27;11.20;99.90
5711;DHT22;61291;52.524;13.422;2023-03-19T09:41:26;11.20;99.90
5711;DHT22;61291;52.524;13.422;2023-03-19T09:44:12;11.20;99.90
5711;DHT22;61291;52.524;13.422;2023-03-19T09:46:57;11.30;99.90
5711;DHT22;61291;52.524;13.422;2023-03-19T09:50:04;11.40;99.90
5711;DHT22;61291;52.524;13.422;2023-03-19T09:55:49;13.10;99.90
5711;DHT22;61291;52.524;13.422;2023-03-19T09:58:27;13.80;99.90
5711;DHT22;61291;52.524;13.422;2023-03-19T10:00:55;14.00;99.90
5711;DHT22;61291;52.524;13.422;2023-03-19T10:03:37;14.10;99.90
5711;DHT22;61291;52.524;13.422;2023-03-19T10:06:21;14.30;99.90
5711;DHT22;61291;52.524;13.422;2023-03-19T10:09:25;14.60;99.90
5711;DHT22;61291;52.524;13.422;2023-03-19T10:12:21;14.90;99.90
5711;DHT22;61291;52.524;13.422;2023-03-19T10:15:01;15.20;99.90
5711;DHT22;61291;52.524;13.422;2023-03-19T10:17:34;15.60;99.90
5711;DHT22;61291;52.524;13.422;2023-03-19T10:20:37;16.10;99.90
5711;DHT22;61291;52.524;13.422;2023-03-19T10:25:44;16.30;99.90
5711;DHT22;61291;52.524;13.422;2023-03-19T10:28:14;16.20;99.90
5711;DHT22;61291;52.524;13.422;2023-03-19T10:30:41;16.30;99.90
5711;DHT22;61291;52.524;13.422;2023-03-19T10:33:20;16.30;99.90
5711;DHT22;61291;52.524;13.422;2023-03-19T10:35:53;16.40;99.90
5711;DHT22;61291;52.524;13.422;2023-03-19T10:38:23;16.50;99.90
5711;DHT22;61291;52.524;13.422;2023-03-19T10:41:23;16.70;99.90
5711;DHT22;61291;52.524;13.422;2023-03-19T10:44:01;17.30;99.90
5711;DHT22;61291;52.524;13.422;2023-03-19T10:46:36;17.80;99.90
5711;DHT22;61291;52.524;13.422;2023-03-19T10:49:02;18.00;99.90
5711;DHT22;61291;52.524;13.422;2023-03-19T10:51:27;18.20;99.90
5711;DHT22;61291;52.524;13.422;2023-03-19T10:53:53;18.40;99.90
5711;DHT22;61291;52.524;13.422;2023-03-19T10:56:27;18.50;99.90
5711;DHT22;61291;52.524;13.422;2023-03-19T10:59:01;18.80;99.90
5711;DHT22;61291;52.524;13.422;2023-03-19T11:01:32;18.90;99.90
5711;DHT22;61291;52.524;13.422;2023-03-19T11:04:00;18.90;99.90
5711;DHT22;61291;52.524;13.422;2023-03-19T11:06:31;18.90;99.90
5711;DHT22;61291;52.524;13.422;2023-03-19T11:09:15;19.00;99.90
5711;DHT22;61291;52.524;13.422;2023-03-19T11:11:52;19.20;99.90
5711;DHT22;61291;52.524;13.422;2023-03-19T11:17:19;19.60;99.90
5711;DHT22;61291;52.524;13.422;2023-03-19T11:19:56;19.60;99.90
5711;DHT22;61291;52.524;13.422;2023-03-19T11:22:34;19.80;99.90
5711;DHT22;61291;52.524;13.422;2023-03-19T11:25:35;19.90;99.90
5711;DHT22;61291;52.524;13.422;2023-03-19T11:28:07;20.00;99.90
5711;DHT22;61291;52.524;13.422;2023-03-19T11:30:44;20.10;99.90
5711;DHT22;61291;52.524;13.422;2023-03-19T11:33:34;20.20;99.90
5711;DHT22;61291;52.524;13.422;2023-03-19T11:39:02;20.40;99.90
5711;DHT22;61291;52.524;13.422;2023-03-19T11:44:52;20.60;99.90
5711;DHT22;61291;52.524;13.422;2023-03-19T11:47:35;20.60;99.90
5711;DHT22;61291;52.524;13.422;2023-03-19T11:52:56;20.60;99.90
5711;DHT22;61291;52.524;13.422;2023-03-19T11:55:36;20.60;99.90
5711;DHT22;61291;52.524;13.422;2023-03-19T11:58:48;20.50;99.90
5711;DHT22;61291;52.524;13.422;2023-03-19T12:01:41;20.20;99.90
5711;DHT22;61291;52.524;13.422;2023-03-19T12:04:33;20.00;99.90
5711;DHT22;61291;52.524;13.422;2023-03-19T12:07:12;20.10;99.90
5711;DHT22;61291;52.524;13.422;2023-03-19T12:10:34;20.10;99.90
5711;DHT22;61291;52.524;13.422;2023-03-19T12:12:41;20.10;99.90
5711;DHT22;61291;52.524;13.422;2023-03-19T12:18:19;19.70;99.90
5711;DHT22;61291;52.524;13.422;2023-03-19T12:21:05;19.70;99.90
5711;DHT22;61291;52.524;13.422;2023-03-19T12:31:41;19.80;99.90
5711;DHT22;61291;52.524;13.422;2023-03-19T12:34:11;19.90;99.90
5711;DHT22;61291;52.524;13.422;2023-03-19T12:39:40;19.90;99.90
5711;DHT22;61291;52.524;13.422;2023-03-19T12:42:11;19.80;99.90
5711;DHT22;61291;52.524;13.422;2023-03-19T12:44:45;19.80;99.90
5711;DHT22;61291;52.524;13.422;2023-03-19T12:47:17;20.00;99.90
5711;DHT22;61291;52.524;13.422;2023-03-19T12:57:46;20.70;99.90
5711;DHT22;61291;52.524;13.422;2023-03-19T13:02:57;20.60;99.90
5711;DHT22;61291;52.524;13.422;2023-03-19T13:05:40;20.50;99.90
5711;DHT22;61291;52.524;13.422;2023-03-19T13:11:19;20.30;99.90
5711;DHT22;61291;52.524;13.422;2023-03-19T13:13:57;20.30;99.90
5711;DHT22;61291;52.524;13.422;2023-03-19T13:19:19;20.20;99.90
5711;DHT22;61291;52.524;13.422;2023-03-19T13:21:48;19.90;99.90
5711;DHT22;61291;52.524;13.422;2023-03-19T13:24:28;19.60;99.90
5711;DHT22;61291;52.524;13.422;2023-03-19T13:26:55;19.50;99.90
5711;DHT22;61291;52.524;13.422;2023-03-19T13:29:28;19.40;99.90
5711;DHT22;61291;52.524;13.422;2023-03-19T13:32:06;19.40;99.90
5711;DHT22;61291;52.524;13.422;2023-03-19T13:34:36;19.60;99.90
5711;DHT22;61291;52.524;13.422;2023-03-19T13:37:12;19.60;99.90
5711;DHT22;61291;52.524;13.422;2023-03-19T13:39:39;19.60;99.90
5711;DHT22;61291;52.524;13.422;2023-03-19T13:44:52;19.70;99.90
5711;DHT22;61291;52.524;13.422;2023-03-19T13:55:27;19.80;99.90
5711;DHT22;61291;52.524;13.422;2023-03-19T14:00:59;19.90;99.90
5711;DHT22;61291;52.524;13.422;2023-03-19T14:03:27;19.90;99.90
5711;DHT22;61291;52.524;13.422;2023-03-19T14:05:54;20.00;99.90
5711;DHT22;61291;52.524;13.422;2023-03-19T14:08:41;20.10;99.90
5711;DHT22;61291;52.524;13.422;2023-03-19T14:11:08;20.10;99.90
5711;DHT22;61291;52.524;13.422;2023-03-19T14:13:40;20.20;99.90
5711;DHT22;61291;52.524;13.422;2023-03-19T14:16:16;20.20;99.90
5711;DHT22;61291;52.524;13.422;2023-03-19T14:18:43;20.20;99.90
5711;DHT22;61291;52.524;13.422;2023-03-19T14:21:13;20.20;99.90
5711;DHT22;61291;52.524;13.422;2023-03-19T14:23:41;20.30;99.90
5711;DHT22;61291;52.524;13.422;2023-03-19T14:26:16;20.40;99.90
5711;DHT22;61291;52.524;13.422;2023-03-19T14:28:59;20.40;99.90
5711;DHT22;61291;52.524;13.422;2023-03-19T14:31:44;20.50;99.90
5711;DHT22;61291;52.524;13.422;2023-03-19T14:37:02;20.80;99.90
5711;DHT22;61291;52.524;13.422;2023-03-19T14:39:37;20.90;99.90
5711;DHT22;61291;52.524;13.422;2023-03-19T14:42:06;21.00;99.90
5711;DHT22;61291;52.524;13.422;2023-03-19T14:47:24;21.30;99.90
5711;DHT22;61291;52.524;13.422;2023-03-19T14:52:30;21.30;99.90
5711;DHT22;61291;52.524;13.422;2023-03-19T14:55:07;21.10;99.90
5711;DHT22;61291;52.524;13.422;2023-03-19T14:57:34;21.00;99.90
5711;DHT22;61291;52.524;13.422;2023-03-19T15:00:01;20.90;99.90
5711;DHT22;61291;52.524;13.422;2023-03-19T15:02:48;20.70;99.90
5711;DHT22;61291;52.524;13.422;2023-03-19T15:05:17;20.50;99.90
5711;DHT22;61291;52.524;13.422;2023-03-19T15:07:46;20.20;99.90
5711;DHT22;61291;52.524;13.422;2023-03-19T15:10:18;19.90;99.90
5711;DHT22;61291;52.524;13.422;2023-03-19T15:18:25;19.10;99.90
5711;DHT22;61291;52.524;13.422;2023-03-19T15:20:52;18.90;99.90
5711;DHT22;61291;52.524;13.422;2023-03-19T15:23:21;18.60;99.90
5711;DHT22;61291;52.524;13.422;2023-03-19T15:25:55;18.50;99.90
5711;DHT22;61291;52.524;13.422;2023-03-19T15:28:23;18.30;99.90
5711;DHT22;61291;52.524;13.422;2023-03-19T15:31:00;18.20;99.90
5711;DHT22;61291;52.524;13.422;2023-03-19T15:33:37;18.20;99.90
5711;DHT22;61291;52.524;13.422;2023-03-19T15:36:20;18.10;99.90
5711;DHT22;61291;52.524;13.422;2023-03-19T15:38:59;18.20;99.90
5711;DHT22;61291;52.524;13.422;2023-03-19T15:41:29;18.20;99.90
5711;DHT22;61291;52.524;13.422;2023-03-19T15:43:55;18.20;99.90
5711;DHT22;61291;52.524;13.422;2023-03-19T15:46:25;18.20;99.90
5711;DHT22;61291;52.524;13.422;2023-03-19T15:49:15;18.30;99.90
5711;DHT22;61291;52.524;13.422;2023-03-19T15:51:41;18.30;99.90
5711;DHT22;61291;52.524;13.422;2023-03-19T15:54:07;18.30;99.90
5711;DHT22;61291;52.524;13.422;2023-03-19T15:56:34;18.40;99.90
5711;DHT22;61291;52.524;13.422;2023-03-19T15:58:59;18.60;99.90
5711;DHT22;61291;52.524;13.422;2023-03-19T16:01:26;18.80;99.90
5711;DHT22;61291;52.524;13.422;2023-03-19T16:04:01;19.00;99.90
5711;DHT22;61291;52.524;13.422;2023-03-19T16:06:35;19.20;99.90
5711;DHT22;61291;52.524;13.422;2023-03-19T16:11:45;19.40;99.90
5711;DHT22;61291;52.524;13.422;2023-03-19T16:14:24;19.30;99.90
5711;DHT22;61291;52.524;13.422;2023-03-19T16:16:52;19.10;99.90
5711;DHT22;61291;52.524;13.422;2023-03-19T16:22:12;18.70;99.90
5711;DHT22;61291;52.524;13.422;2023-03-19T16:24:40;18.60;99.90
5711;DHT22;61291;52.524;13.422;2023-03-19T16:27:11;18.60;99.90
5711;DHT22;61291;52.524;13.422;2023-03-19T16:29:41;18.60;99.90
5711;DHT22;61291;52.524;13.422;2023-03-19T16:32:18;18.50;99.90
5711;DHT22;61291;52.524;13.422;2023-03-19T16:42:38;17.70;99.90
5711;DHT22;61291;52.524;13.422;2023-03-19T16:45:29;17.50;99.90
5711;DHT22;61291;52.524;13.422;2023-03-19T16:47:56;17.30;99.90
5711;DHT22;61291;52.524;13.422;2023-03-19T16:50:36;17.00;99.90
5711;DHT22;61291;52.524;13.422;2023-03-19T16:53:18;16.90;99.90
5711;DHT22;61291;52.524;13.422;2023-03-19T16:55:44;16.70;99.90
5711;DHT22;61291;52.524;13.422;2023-03-19T16:58:15;16.50;99.90
5711;DHT22;61291;52.524;13.422;2023-03-19T17:00:42;16.40;99.90
5711;DHT22;61291;52.524;13.422;2023-03-19T17:03:16;16.20;99.90
5711;DHT22;61291;52.524;13.422;2023-03-19T17:05:43;16.10;99.90
5711;DHT22;61291;52.524;13.422;2023-03-19T17:08:10;16.00;99.90
5711;DHT22;61291;52.524;13.422;2023-03-19T17:10:39;15.80;99.90
5711;DHT22;61291;52.524;13.422;2023-03-19T17:13:06;15.70;99.90
5711;DHT22;61291;52.524;13.422;2023-03-19T17:15:36;15.60;99.90
5711;DHT22;61291;52.524;13.422;2023-03-19T17:18:12;15.50;99.90
5711;DHT22;61291;52.524;13.422;2023-03-19T17:21:27;15.30;99.90
5711;DHT22;61291;52.524;13.422;2023-03-19T17:23:27;15.20;99.90
5711;DHT22;61291;52.524;13.422;2023-03-19T17:25:55;15.10;99.90